Time;durP1;ratioP1;P1;durP2;ratioP2;P2;SDS_P1;SDS_P2;PMS_P1;PMS_P2;Temp;Humidity;BMP_temperature;BMP_pressure;BME280_temperature;BME280_humidity;BME280_pressure;Samples;Min_cycle;Max_cycle;Signal;HPM_P1;HPM_P2
2022/05/22 00:02:09;;;;;;;0.40;0.30;;;14.20;99.90;;;;;;5050898;28;20808;-71
2022/05/22 00:04:36;;;;;;;0.40;0.30;;;14.20;99.90;;;;;;5051838;28;20396;-71
2022/05/22 00:07:02;;;;;;;0.40;0.30;;;14.00;99.90;;;;;;5051369;28;20416;-71
2022/05/22 00:09:28;;;;;;;0.50;0.45;;;14.00;99.90;;;;;;5050248;28;20409;-70
2022/05/22 00:11:55;;;;;;;0.40;0.30;;;13.90;99.90;;;;;;5051087;28;20567;-70
2022/05/22 00:14:21;;;;;;;0.40;0.20;;;13.80;99.90;;;;;;5050942;28;20389;-71
2022/05/22 00:16:47;;;;;;;0.40;0.30;;;13.80;99.90;;;;;;5051380;28;20386;-71
2022/05/22 00:19:16;;;;;;;0.40;0.20;;;13.90;99.90;;;;;;5050931;28;20399;-71
2022/05/22 00:21:43;;;;;;;0.40;0.20;;;13.90;99.90;;;;;;5051352;28;20365;-70
2022/05/22 00:24:10;;;;;;;0.40;0.30;;;13.70;99.90;;;;;;5044200;28;20426;-70
2022/05/22 00:26:36;;;;;;;0.40;0.30;;;13.60;99.90;;;;;;5031468;28;20502;-71
2022/05/22 00:29:02;;;;;;;0.40;0.30;;;13.60;99.90;;;;;;5040438;28;20527;-71
2022/05/22 00:31:28;;;;;;;0.40;0.20;;;13.60;99.90;;;;;;5044866;28;20405;-71
2022/05/22 00:33:54;;;;;;;0.40;0.20;;;13.70;99.90;;;;;;5039183;28;20853;-70
2022/05/22 00:36:19;;;;;;;0.40;0.40;;;13.50;99.90;;;;;;5050429;28;20382;-71
2022/05/22 00:38:45;;;;;;;0.40;0.20;;;13.50;99.90;;;;;;5036698;28;20761;-71
2022/05/22 00:41:12;;;;;;;0.40;0.30;;;13.60;99.90;;;;;;5030759;28;20482;-71
2022/05/22 00:43:41;;;;;;;0.40;0.30;;;13.50;99.90;;;;;;5031175;28;20399;-70
2022/05/22 00:46:11;;;;;;;0.40;0.30;;;13.60;99.90;;;;;;5030082;28;20386;-71
2022/05/22 00:48:38;;;;;;;0.40;0.20;;;13.50;99.90;;;;;;5030842;28;20379;-71
2022/05/22 00:51:21;;;;;;;0.40;0.20;;;13.60;99.90;;;;;;5046622;28;20467;-71
2022/05/22 00:53:55;;;;;;;0.50;0.40;;;13.50;99.90;;;;;;5050876;28;20389;-70
2022/05/22 00:56:25;;;;;;;0.40;0.20;;;13.50;99.90;;;;;;5050316;28;20370;-71
2022/05/22 00:58:54;;;;;;;0.40;0.30;;;13.40;99.90;;;;;;5050750;28;20416;-71
2022/05/22 01:01:20;;;;;;;0.40;0.30;;;13.40;99.90;;;;;;5050639;28;20434;-71
2022/05/22 01:03:46;;;;;;;0.40;0.25;;;13.40;99.90;;;;;;5051162;28;20381;-71
2022/05/22 01:06:20;;;;;;;0.40;0.20;;;13.50;99.90;;;;;;5050267;28;20365;-71
2022/05/22 01:08:47;;;;;;;0.40;0.20;;;13.30;99.90;;;;;;5050884;28;20373;-71
2022/05/22 01:11:27;;;;;;;0.40;0.20;;;13.10;99.90;;;;;;5049916;28;20412;-71
2022/05/22 01:14:01;;;;;;;0.40;0.30;;;13.20;99.90;;;;;;5050866;28;20385;-72
2022/05/22 01:16:26;;;;;;;0.40;0.20;;;13.10;99.90;;;;;;5050328;28;20461;-71
2022/05/22 01:18:54;;;;;;;0.40;0.20;;;13.10;99.90;;;;;;5050452;28;20497;-71
2022/05/22 01:21:31;;;;;;;0.40;0.30;;;13.00;99.90;;;;;;5050077;28;20400;-71
2022/05/22 01:23:57;;;;;;;0.40;0.20;;;12.90;99.90;;;;;;5045542;28;20376;-71
2022/05/22 01:26:27;;;;;;;0.40;0.30;;;12.90;99.90;;;;;;5035332;28;20385;-71
2022/05/22 01:28:53;;;;;;;0.40;0.20;;;12.90;99.90;;;;;;5049922;28;20389;-71
2022/05/22 01:31:19;;;;;;;0.40;0.20;;;12.90;99.90;;;;;;5049240;28;20373;-71
2022/05/22 01:33:44;;;;;;;0.40;0.20;;;12.90;99.90;;;;;;5049927;28;20927;-71
2022/05/22 01:36:11;;;;;;;0.40;0.20;;;12.90;99.90;;;;;;5049682;28;20444;-71
2022/05/22 01:38:37;;;;;;;0.40;0.20;;;12.80;99.90;;;;;;5050145;28;20381;-71
2022/05/22 01:41:05;;;;;;;0.40;0.22;;;12.90;99.90;;;;;;5050207;28;20781;-71
2022/05/22 01:43:31;;;;;;;0.40;0.20;;;12.90;99.90;;;;;;5049070;28;20386;-71
2022/05/22 01:45:57;;;;;;;0.40;0.40;;;12.80;99.90;;;;;;5050138;28;20393;-71
2022/05/22 01:48:24;;;;;;;0.40;0.20;;;12.80;99.90;;;;;;5049052;28;20405;-71
2022/05/22 01:50:51;;;;;;;0.80;0.80;;;12.80;99.90;;;;;;5050008;28;20385;-71
2022/05/22 01:53:18;;;;;;;0.40;0.20;;;12.80;99.90;;;;;;5049001;28;20399;-70
2022/05/22 01:55:44;;;;;;;0.40;0.20;;;12.80;99.90;;;;;;5049680;28;20464;-70
2022/05/22 01:58:10;;;;;;;0.40;0.30;;;12.70;99.90;;;;;;5049071;28;20385;-70
2022/05/22 02:00:37;;;;;;;0.40;0.20;;;12.70;99.90;;;;;;5049456;28;20787;-70
2022/05/22 02:03:04;;;;;;;0.40;0.20;;;12.70;99.90;;;;;;5049562;28;20472;-70
2022/05/22 02:05:30;;;;;;;0.40;0.20;;;12.80;99.90;;;;;;5048986;28;20393;-71
2022/05/22 02:10:40;;;;;;;0.40;0.20;;;12.90;99.90;;;;;;5049564;28;20412;-71
2022/05/22 02:13:07;;;;;;;0.40;0.20;;;12.90;99.90;;;;;;5049594;28;20386;-71
2022/05/22 02:15:33;;;;;;;0.40;0.20;;;12.90;99.90;;;;;;5048695;28;20770;-70
2022/05/22 02:17:59;;;;;;;0.40;0.20;;;12.90;99.90;;;;;;5049618;28;20389;-70
2022/05/22 02:20:24;;;;;;;1.00;1.00;;;12.90;99.90;;;;;;5048688;28;20738;-70
2022/05/22 02:22:53;;;;;;;0.40;0.20;;;12.90;99.90;;;;;;5049020;28;20464;-70
2022/05/22 02:25:30;;;;;;;0.40;0.30;;;12.80;99.90;;;;;;5048401;28;20738;-71
2022/05/22 02:27:57;;;;;;;0.40;0.20;;;12.80;99.90;;;;;;5030394;28;20418;-71
2022/05/22 02:30:26;;;;;;;0.80;0.80;;;12.90;99.90;;;;;;5028521;28;20394;-70
2022/05/22 02:32:52;;;;;;;0.40;0.20;;;13.00;99.90;;;;;;5011486;28;20383;-70
2022/05/22 02:35:18;;;;;;;0.40;0.20;;;12.90;99.90;;;;;;5028366;28;20386;-70
2022/05/22 02:37:46;;;;;;;0.40;0.20;;;12.90;99.90;;;;;;5029733;28;20392;-70
2022/05/22 02:40:14;;;;;;;0.40;0.20;;;13.00;99.90;;;;;;5028683;28;20414;-70
2022/05/22 02:42:48;;;;;;;0.40;0.20;;;13.00;99.90;;;;;;5029278;28;20387;-70
2022/05/22 02:45:18;;;;;;;0.40;0.20;;;13.00;99.90;;;;;;5028851;28;20391;-70
2022/05/22 02:47:44;;;;;;;0.40;0.20;;;12.80;99.90;;;;;;5029189;28;20414;-70
2022/05/22 02:50:11;;;;;;;0.40;0.20;;;12.80;99.90;;;;;;5029493;28;20387;-70
2022/05/22 02:52:37;;;;;;;0.40;0.20;;;12.70;99.90;;;;;;5028836;28;20375;-70
2022/05/22 02:55:04;;;;;;;0.40;0.30;;;12.80;99.90;;;;;;5028796;28;20453;-70
2022/05/22 02:57:33;;;;;;;0.40;0.30;;;12.80;99.90;;;;;;5028417;28;20990;-70
2022/05/22 02:59:59;;;;;;;0.40;0.20;;;12.70;99.90;;;;;;5029041;28;20930;-70
2022/05/22 03:02:24;;;;;;;0.40;0.30;;;12.60;99.90;;;;;;5010834;28;20389;-71
2022/05/22 03:04:50;;;;;;;0.40;0.20;;;12.60;99.90;;;;;;5029090;28;20394;-70
2022/05/22 03:07:18;;;;;;;0.40;0.30;;;12.60;99.90;;;;;;5027193;28;20414;-70
2022/05/22 03:09:45;;;;;;;0.40;0.20;;;12.60;99.90;;;;;;5029588;28;20434;-70
2022/05/22 03:12:19;;;;;;;0.40;0.20;;;12.50;99.90;;;;;;5032426;28;20502;-70
2022/05/22 03:14:46;;;;;;;0.40;0.20;;;12.50;99.90;;;;;;5032928;28;20406;-70
2022/05/22 03:17:12;;;;;;;0.80;0.80;;;12.50;99.90;;;;;;5032677;28;20391;-70
2022/05/22 03:19:38;;;;;;;0.40;0.20;;;12.50;99.90;;;;;;5032048;28;20855;-70
2022/05/22 03:22:05;;;;;;;0.40;0.23;;;12.40;99.90;;;;;;5032971;28;20394;-70
2022/05/22 03:24:31;;;;;;;0.40;0.20;;;12.40;99.90;;;;;;5040812;28;20420;-70
2022/05/22 03:26:56;;;;;;;0.40;0.20;;;12.60;99.90;;;;;;5041803;28;20439;-70
2022/05/22 03:29:22;;;;;;;0.40;0.20;;;12.60;99.90;;;;;;5032107;28;20925;-70
2022/05/22 03:31:48;;;;;;;0.40;0.30;;;12.50;99.90;;;;;;5032789;28;20379;-70
2022/05/22 03:34:13;;;;;;;0.40;0.20;;;12.50;99.90;;;;;;5032368;28;20399;-70
2022/05/22 03:36:40;;;;;;;0.40;0.20;;;12.20;99.90;;;;;;5032253;28;20379;-70
2022/05/22 03:39:06;;;;;;;0.40;0.20;;;12.20;99.90;;;;;;5032636;28;20761;-70
2022/05/22 03:41:33;;;;;;;0.40;0.30;;;12.10;99.90;;;;;;5033447;28;20440;-70
2022/05/22 03:43:59;;;;;;;0.40;0.28;;;12.10;99.90;;;;;;5040969;28;20397;-70
2022/05/22 03:46:25;;;;;;;0.40;0.20;;;12.10;99.90;;;;;;5051552;28;20430;-70
2022/05/22 03:48:50;;;;;;;0.40;0.20;;;12.20;99.90;;;;;;5039680;28;20387;-70
2022/05/22 03:51:16;;;;;;;0.40;0.20;;;12.20;99.90;;;;;;5031880;28;20743;-70
2022/05/22 03:53:42;;;;;;;0.40;0.20;;;12.10;99.90;;;;;;5031670;28;20382;-70
2022/05/22 03:56:16;;;;;;;0.80;0.80;;;12.10;99.90;;;;;;5032199;28;20375;-70
2022/05/22 03:58:42;;;;;;;1.00;0.90;;;12.20;99.90;;;;;;5032155;28;20403;-70
2022/05/22 04:01:08;;;;;;;0.40;0.20;;;12.10;99.90;;;;;;5046184;28;20428;-70
2022/05/22 04:03:34;;;;;;;0.40;0.30;;;12.10;99.90;;;;;;5050914;28;20755;-70
2022/05/22 04:06:04;;;;;;;0.40;0.40;;;12.10;99.90;;;;;;5051553;28;20824;-70
2022/05/22 04:08:31;;;;;;;0.40;0.20;;;12.10;99.90;;;;;;5051252;28;20413;-70
2022/05/22 04:10:57;;;;;;;0.40;0.30;;;12.10;99.90;;;;;;5051201;28;20424;-70
2022/05/22 04:13:24;;;;;;;0.40;0.20;;;12.30;99.90;;;;;;5051310;28;20540;-70
2022/05/22 04:15:50;;;;;;;0.40;0.20;;;12.20;99.90;;;;;;5051645;28;20395;-69
2022/05/22 04:18:15;;;;;;;0.40;0.20;;;12.20;99.90;;;;;;5033957;28;20454;-70
2022/05/22 04:20:41;;;;;;;0.40;0.20;;;12.30;99.90;;;;;;5050888;28;20393;-70
2022/05/22 04:25:56;;;;;;;0.40;0.20;;;12.40;99.90;;;;;;5031607;28;20414;-70
2022/05/22 04:28:23;;;;;;;0.40;0.30;;;12.40;99.90;;;;;;5031052;28;20411;-70
2022/05/22 04:30:49;;;;;;;0.40;0.20;;;12.30;99.90;;;;;;5031795;28;20393;-69
2022/05/22 04:33:16;;;;;;;0.40;0.20;;;12.40;99.90;;;;;;5031567;28;20391;-70
2022/05/22 04:35:43;;;;;;;0.40;0.30;;;12.30;99.90;;;;;;5030431;28;21206;-70
2022/05/22 04:38:10;;;;;;;0.40;0.20;;;12.40;99.90;;;;;;5031491;28;20466;-72
2022/05/22 04:40:36;;;;;;;0.40;0.30;;;12.40;99.90;;;;;;5030566;28;20536;-72
2022/05/22 04:43:02;;;;;;;0.40;0.20;;;12.50;99.90;;;;;;5031543;28;20387;-72
2022/05/22 04:45:28;;;;;;;0.40;0.20;;;12.40;99.90;;;;;;5030653;28;20375;-72
2022/05/22 04:47:53;;;;;;;0.40;0.20;;;12.50;99.90;;;;;;5031138;28;20441;-70
2022/05/22 04:50:19;;;;;;;0.40;0.20;;;12.50;99.90;;;;;;5031135;28;20705;-72
2022/05/22 04:52:45;;;;;;;0.40;0.30;;;12.50;99.90;;;;;;5030906;28;20879;-72
2022/05/22 04:55:10;;;;;;;0.40;0.20;;;12.40;99.90;;;;;;5031016;28;20375;-71
2022/05/22 04:57:36;;;;;;;0.40;0.20;;;12.40;99.90;;;;;;5030312;28;20387;-70
2022/05/22 05:00:04;;;;;;;0.40;0.20;;;12.30;99.90;;;;;;5030910;28;20409;-71
2022/05/22 05:02:30;;;;;;;0.50;0.50;;;12.20;99.90;;;;;;5030188;28;20593;-70
2022/05/22 05:04:57;;;;;;;0.40;0.30;;;12.40;99.90;;;;;;5030850;28;20470;-70
2022/05/22 05:07:22;;;;;;;0.40;0.20;;;12.50;99.90;;;;;;5012775;28;20763;-70
2022/05/22 05:09:48;;;;;;;0.40;0.20;;;12.60;99.90;;;;;;5030757;28;20391;-70
2022/05/22 05:12:14;;;;;;;0.40;0.30;;;12.60;99.90;;;;;;5031243;28;20407;-70
2022/05/22 05:14:40;;;;;;;0.40;0.30;;;12.60;99.90;;;;;;5029794;28;20566;-70
2022/05/22 05:17:11;;;;;;;0.40;0.30;;;12.80;99.90;;;;;;5030832;28;20393;-70
2022/05/22 05:19:37;;;;;;;0.40;0.20;;;12.90;99.90;;;;;;5029847;28;20399;-70
2022/05/22 05:22:03;;;;;;;0.40;0.20;;;13.00;99.90;;;;;;5030650;28;20645;-70
2022/05/22 05:24:29;;;;;;;0.40;0.20;;;13.10;99.90;;;;;;5029797;28;20387;-70
2022/05/22 05:26:55;;;;;;;0.40;0.20;;;13.20;99.90;;;;;;5031018;28;20875;-70
2022/05/22 05:29:22;;;;;;;0.40;0.28;;;13.30;99.90;;;;;;5030442;28;20482;-70
2022/05/22 05:31:47;;;;;;;0.40;0.30;;;13.40;99.90;;;;;;5030000;28;20392;-70
2022/05/22 05:34:13;;;;;;;0.40;0.20;;;13.50;99.90;;;;;;5030617;28;20493;-70
2022/05/22 05:36:39;;;;;;;0.40;0.30;;;13.60;99.90;;;;;;5035089;28;20443;-70
2022/05/22 05:39:06;;;;;;;0.45;0.43;;;13.70;99.90;;;;;;5050219;28;20492;-71
2022/05/22 05:41:31;;;;;;;0.40;0.30;;;13.90;99.90;;;;;;5049253;28;20397;-70
2022/05/22 05:43:57;;;;;;;0.40;0.20;;;13.90;99.90;;;;;;5050647;28;20435;-71
2022/05/22 05:46:23;;;;;;;0.40;0.30;;;14.00;99.90;;;;;;5049859;28;20707;-70
2022/05/22 05:48:48;;;;;;;0.40;0.30;;;14.10;99.90;;;;;;5049860;28;20483;-71
2022/05/22 05:51:14;;;;;;;0.40;0.30;;;14.30;99.90;;;;;;5032277;28;20587;-70
2022/05/22 05:53:40;;;;;;;0.40;0.30;;;14.40;99.90;;;;;;5049450;28;20468;-71
2022/05/22 05:56:07;;;;;;;0.40;0.28;;;14.50;99.90;;;;;;5050086;28;20381;-71
2022/05/22 05:58:33;;;;;;;0.40;0.20;;;14.60;99.90;;;;;;5047966;28;20381;-71
2022/05/22 06:00:59;;;;;;;0.40;0.20;;;14.70;99.90;;;;;;5049958;28;20373;-71
2022/05/22 06:03:24;;;;;;;0.40;0.30;;;14.80;99.90;;;;;;5049585;28;20504;-71
2022/05/22 06:05:50;;;;;;;0.40;0.30;;;15.00;99.90;;;;;;5049622;28;20384;-71
2022/05/22 06:08:16;;;;;;;0.40;0.20;;;15.10;99.90;;;;;;5048931;28;20571;-71
2022/05/22 06:10:41;;;;;;;0.40;0.20;;;15.10;99.90;;;;;;5047039;28;20417;-71
2022/05/22 06:13:08;;;;;;;0.40;0.30;;;15.20;99.90;;;;;;5048769;28;20915;-71
2022/05/22 06:15:34;;;;;;;0.40;0.20;;;15.30;99.90;;;;;;5048314;28;20722;-71
2022/05/22 06:18:00;;;;;;;0.40;0.20;;;15.50;99.90;;;;;;5047615;28;20386;-71
2022/05/22 06:20:26;;;;;;;0.40;0.40;;;15.60;99.90;;;;;;5040323;28;20394;-71
2022/05/22 06:22:51;;;;;;;0.40;0.30;;;15.60;99.90;;;;;;5029565;28;20846;-70
2022/05/22 06:25:17;;;;;;;0.40;0.30;;;15.80;99.90;;;;;;5034037;28;20387;-70
2022/05/22 06:27:44;;;;;;;0.40;0.20;;;15.90;99.90;;;;;;5028669;28;20465;-71
2022/05/22 06:30:12;;;;;;;0.40;0.40;;;16.10;99.90;;;;;;5028130;28;20871;-71
2022/05/22 06:32:40;;;;;;;0.40;0.30;;;16.20;99.90;;;;;;5028787;28;20787;-71
2022/05/22 06:35:08;;;;;;;0.40;0.30;;;16.30;99.90;;;;;;5030047;28;20406;-71
2022/05/22 06:37:33;;;;;;;0.40;0.30;;;16.40;99.90;;;;;;5028610;28;20391;-71
2022/05/22 06:39:59;;;;;;;0.40;0.20;;;16.60;99.90;;;;;;5032500;28;20754;-71
2022/05/22 06:42:31;;;;;;;0.40;0.20;;;16.60;99.90;;;;;;5049243;28;20392;-71
2022/05/22 06:45:04;;;;;;;0.40;0.20;;;16.70;99.90;;;;;;5050227;28;20389;-71
2022/05/22 06:47:32;;;;;;;0.40;0.30;;;16.80;99.90;;;;;;5052513;28;20420;-71
2022/05/22 06:49:58;;;;;;;0.40;0.22;;;17.00;99.90;;;;;;5051875;28;20381;-71
2022/05/22 06:52:25;;;;;;;0.40;0.20;;;17.20;99.90;;;;;;5063402;28;20389;-71
2022/05/22 06:54:52;;;;;;;0.40;0.30;;;17.30;99.90;;;;;;5052724;28;20457;-71
2022/05/22 06:57:20;;;;;;;0.68;0.60;;;17.30;99.90;;;;;;5065882;28;20744;-71
2022/05/22 06:59:47;;;;;;;0.40;0.20;;;17.40;99.90;;;;;;5072201;28;20384;-70
2022/05/22 07:02:15;;;;;;;0.40;0.20;;;17.40;99.90;;;;;;5073193;28;20457;-69
2022/05/22 07:04:41;;;;;;;0.40;0.20;;;17.50;99.90;;;;;;5072574;28;20389;-70
2022/05/22 07:07:07;;;;;;;0.40;0.20;;;17.40;99.90;;;;;;5073136;28;20560;-70
2022/05/22 07:09:34;;;;;;;0.40;0.20;;;17.50;99.90;;;;;;5058742;28;20409;-70
2022/05/22 07:11:59;;;;;;;0.40;0.20;;;17.40;99.90;;;;;;5052663;28;20583;-71
2022/05/22 07:14:27;;;;;;;0.40;0.20;;;17.60;99.90;;;;;;5038506;28;20383;-69
2022/05/22 07:16:54;;;;;;;0.40;0.20;;;17.80;99.90;;;;;;5032646;28;20472;-71
2022/05/22 07:19:20;;;;;;;0.40;0.30;;;17.80;99.90;;;;;;5033256;28;20383;-69
2022/05/22 07:21:47;;;;;;;0.40;0.20;;;17.90;99.90;;;;;;5032412;28;20388;-70
2022/05/22 07:24:14;;;;;;;0.40;0.20;;;18.00;99.90;;;;;;5033254;28;20390;-69
2022/05/22 07:26:39;;;;;;;0.40;0.30;;;18.00;99.90;;;;;;5031896;28;20405;-69
2022/05/22 07:29:05;;;;;;;0.40;0.30;;;18.10;99.90;;;;;;5032893;28;20384;-70
2022/05/22 07:31:32;;;;;;;0.40;0.20;;;18.10;99.90;;;;;;5032140;28;20939;-70
2022/05/22 07:33:59;;;;;;;0.40;0.20;;;18.10;99.90;;;;;;5033022;28;20383;-69
2022/05/22 07:36:25;;;;;;;0.40;0.30;;;18.10;99.90;;;;;;5032679;28;20893;-69
2022/05/22 07:38:51;;;;;;;0.40;0.20;;;18.00;99.90;;;;;;5032098;28;20379;-69
2022/05/22 07:41:17;;;;;;;0.40;0.20;;;18.10;99.90;;;;;;5032728;28;20495;-70
2022/05/22 07:43:42;;;;;;;0.40;0.20;;;18.20;99.90;;;;;;5031906;28;20445;-70
2022/05/22 07:46:12;;;;;;;0.40;0.30;;;18.00;99.90;;;;;;5059663;28;20380;-70
2022/05/22 07:48:39;;;;;;;0.40;0.20;;;18.10;99.90;;;;;;5042767;28;20482;-70
2022/05/22 07:51:05;;;;;;;0.40;0.30;;;18.30;99.90;;;;;;5052103;28;20472;-70
2022/05/22 07:53:32;;;;;;;0.90;0.90;;;18.30;99.90;;;;;;5045218;28;20387;-71
2022/05/22 07:55:57;;;;;;;0.40;0.40;;;18.30;99.90;;;;;;5032071;28;20406;-70
2022/05/22 07:58:25;;;;;;;0.40;0.30;;;18.50;99.90;;;;;;5032221;28;20449;-70
2022/05/22 08:00:52;;;;;;;0.40;0.20;;;18.60;99.90;;;;;;5045830;28;20382;-70
2022/05/22 08:03:19;;;;;;;0.40;0.20;;;18.30;99.90;;;;;;5051631;28;20384;-70
2022/05/22 08:05:44;;;;;;;0.40;0.30;;;18.60;99.90;;;;;;5044609;28;20740;-70
2022/05/22 08:08:10;;;;;;;0.40;0.20;;;18.60;99.90;;;;;;5034771;28;20421;-70
2022/05/22 08:10:37;;;;;;;0.40;0.20;;;18.90;99.90;;;;;;5044579;28;20428;-70
2022/05/22 08:13:05;;;;;;;0.40;0.30;;;18.80;99.90;;;;;;5037986;28;20432;-70
2022/05/22 08:15:32;;;;;;;0.40;0.30;;;18.80;99.90;;;;;;5034495;28;20754;-70
2022/05/22 08:17:59;;;;;;;0.40;0.30;;;19.00;99.90;;;;;;5037492;28;20911;-70
2022/05/22 08:20:26;;;;;;;0.50;0.47;;;19.00;99.90;;;;;;5046605;28;20559;-70
2022/05/22 08:23:01;;;;;;;0.40;0.30;;;18.80;99.90;;;;;;5044230;28;20891;-71
2022/05/22 08:25:30;;;;;;;0.40;0.30;;;19.00;99.90;;;;;;5022493;28;20517;-71
2022/05/22 08:27:57;;;;;;;0.40;0.30;;;18.90;99.90;;;;;;5041700;28;20415;-70
2022/05/22 08:30:25;;;;;;;0.40;0.20;;;18.90;99.90;;;;;;5041591;28;20399;-70
2022/05/22 08:32:52;;;;;;;0.40;0.30;;;18.90;99.90;;;;;;5045010;28;20400;-69
2022/05/22 08:35:22;;;;;;;0.40;0.30;;;18.80;99.90;;;;;;5037913;28;20399;-70
2022/05/22 08:37:47;;;;;;;0.40;0.30;;;18.90;99.90;;;;;;5034241;28;20412;-72
2022/05/22 08:40:15;;;;;;;0.50;0.50;;;19.10;99.90;;;;;;5038810;28;20889;-70
2022/05/22 08:42:46;;;;;;;0.40;0.30;;;19.20;99.90;;;;;;5032739;28;20406;-70
2022/05/22 08:45:20;;;;;;;0.40;0.20;;;19.20;99.90;;;;;;5035471;28;20732;-72
2022/05/22 08:48:12;;;;;;;0.80;0.80;;;19.10;99.90;;;;;;5050264;28;20773;-72
2022/05/22 08:50:38;;;;;;;0.80;0.60;;;19.40;99.90;;;;;;5038589;28;20747;-72
2022/05/22 08:53:36;;;;;;;1.70;0.50;;;19.40;99.90;;;;;;5031020;28;20875;-71
2022/05/22 08:59:05;;;;;;;0.40;0.20;;;19.70;99.40;;;;;;5029795;28;21292;-71
2022/05/22 09:02:04;;;;;;;0.40;0.30;;;19.60;99.70;;;;;;5032058;28;20402;-72
2022/05/22 09:04:39;;;;;;;0.40;0.20;;;19.60;99.90;;;;;;5050860;28;20377;-72
2022/05/22 09:07:11;;;;;;;0.40;0.30;;;19.50;99.90;;;;;;5050524;28;20413;-71
2022/05/22 09:09:39;;;;;;;0.40;0.30;;;19.60;99.10;;;;;;5050295;28;20488;-72
2022/05/22 09:12:40;;;;;;;0.40;0.20;;;19.70;96.80;;;;;;5051038;28;20449;-72
2022/05/22 09:15:24;;;;;;;0.40;0.30;;;19.80;97.70;;;;;;5016940;28;20405;-72
2022/05/22 09:17:52;;;;;;;0.40;0.30;;;20.00;95.40;;;;;;5049981;28;20773;-71
2022/05/22 09:20:32;;;;;;;0.40;0.30;;;19.80;95.80;;;;;;5050550;28;20422;-71
2022/05/22 09:23:16;;;;;;;0.40;0.30;;;20.00;96.30;;;;;;5050004;28;20381;-71
2022/05/22 09:26:01;;;;;;;0.40;0.30;;;20.10;96.50;;;;;;5030747;28;20411;-70
2022/05/22 09:28:58;;;;;;;0.50;0.50;;;19.80;95.70;;;;;;5030643;28;20403;-70
2022/05/22 09:31:43;;;;;;;0.40;0.20;;;19.90;96.00;;;;;;5030328;28;20395;-71
2022/05/22 09:34:12;;;;;;;0.40;0.30;;;20.00;95.50;;;;;;5030146;28;20897;-71
2022/05/22 09:37:17;;;;;;;0.40;0.30;;;19.90;95.40;;;;;;5029930;28;20449;-71
2022/05/22 09:40:08;;;;;;;0.40;0.30;;;19.90;97.20;;;;;;5036696;28;20427;-71
2022/05/22 09:42:43;;;;;;;0.40;0.30;;;20.10;95.80;;;;;;5049686;28;20816;-72
2022/05/22 09:45:43;;;;;;;0.50;0.50;;;20.30;95.60;;;;;;5043997;28;20878;-72
2022/05/22 09:48:33;;;;;;;0.40;0.30;;;20.50;94.50;;;;;;5047148;28;20444;-72
2022/05/22 09:51:16;;;;;;;0.40;0.30;;;20.70;95.10;;;;;;5036538;28;20536;-72
2022/05/22 09:54:03;;;;;;;0.40;0.30;;;20.90;94.00;;;;;;5038711;28;20914;-72
2022/05/22 09:57:10;;;;;;;0.40;0.20;;;20.90;94.10;;;;;;5046526;28;20770;-73
2022/05/22 09:59:57;;;;;;;0.40;0.30;;;20.90;94.30;;;;;;5026926;28;20407;-70
2022/05/22 10:02:25;;;;;;;0.50;0.50;;;20.90;93.00;;;;;;5031483;28;20393;-72
2022/05/22 10:05:11;;;;;;;0.40;0.30;;;21.10;92.50;;;;;;5024490;28;20417;-72
2022/05/22 10:07:54;;;;;;;0.40;0.30;;;21.10;94.00;;;;;;5015736;28;20407;-72
2022/05/22 10:10:38;;;;;;;0.40;0.20;;;21.20;93.50;;;;;;5032554;28;20513;-72
2022/05/22 10:13:10;;;;;;;0.40;0.30;;;21.10;91.60;;;;;;5043938;28;20901;-72
2022/05/22 10:15:44;;;;;;;0.40;0.20;;;21.10;91.40;;;;;;5034528;28;20908;-72
2022/05/22 10:18:27;;;;;;;0.40;0.30;;;21.40;92.10;;;;;;5049547;28;20392;-72
2022/05/22 10:20:58;;;;;;;0.40;0.20;;;21.50;88.90;;;;;;5031244;28;20455;-70
2022/05/22 10:23:48;;;;;;;0.40;0.28;;;21.70;89.70;;;;;;5011540;28;20399;-70
2022/05/22 10:26:37;;;;;;;0.60;0.50;;;21.80;88.80;;;;;;5049842;28;20393;-73
2022/05/22 10:29:41;;;;;;;0.40;0.20;;;21.90;90.50;;;;;;5049018;28;20393;-72
2022/05/22 10:32:13;;;;;;;0.40;0.20;;;21.60;90.10;;;;;;5029649;28;20399;-73
2022/05/22 10:35:11;;;;;;;0.40;0.20;;;21.50;87.80;;;;;;5029518;28;20457;-72
2022/05/22 10:37:43;;;;;;;0.40;0.22;;;21.70;90.70;;;;;;5029637;28;20395;-71
2022/05/22 10:40:21;;;;;;;0.40;0.20;;;22.10;87.60;;;;;;5029537;28;20403;-71
2022/05/22 10:42:51;;;;;;;0.40;0.30;;;22.20;85.90;;;;;;5043497;28;20417;-70
2022/05/22 10:45:35;;;;;;;0.40;0.30;;;22.30;87.60;;;;;;5029070;28;20471;-72
2022/05/22 10:48:11;;;;;;;0.40;0.30;;;22.60;85.90;;;;;;5042986;28;20440;-71
2022/05/22 10:50:38;;;;;;;0.40;0.20;;;23.00;83.90;;;;;;5049494;28;20388;-72
2022/05/22 10:53:20;;;;;;;0.90;0.70;;;23.00;81.90;;;;;;5048493;28;20381;-71
2022/05/22 10:55:47;;;;;;;0.40;0.30;;;23.00;79.30;;;;;;5048455;28;20435;-72
2022/05/22 10:58:26;;;;;;;0.40;0.30;;;23.10;80.00;;;;;;5049334;28;20394;-71
2022/05/22 11:00:58;;;;;;;0.40;0.30;;;23.00;79.00;;;;;;5028782;28;20409;-72
2022/05/22 11:03:30;;;;;;;0.40;0.30;;;23.20;79.00;;;;;;5029225;28;20371;-72
2022/05/22 11:05:57;;;;;;;1.20;1.10;;;23.10;76.80;;;;;;5028335;28;20387;-72
2022/05/22 11:08:47;;;;;;;0.40;0.30;;;22.90;77.90;;;;;;5019039;28;20426;-73
2022/05/22 11:11:15;;;;;;;0.40;0.30;;;22.60;79.60;;;;;;5048761;28;20495;-70
2022/05/22 11:13:42;;;;;;;0.40;0.30;;;22.70;78.10;;;;;;5048856;28;21148;-72
2022/05/22 11:16:12;;;;;;;0.40;0.20;;;22.80;80.00;;;;;;5048866;28;20387;-72
2022/05/22 11:18:38;;;;;;;0.40;0.30;;;23.00;80.10;;;;;;5048914;28;20381;-72
2022/05/22 11:21:11;;;;;;;0.40;0.30;;;23.30;79.20;;;;;;5047960;28;20473;-71
2022/05/22 11:24:22;;;;;;;0.40;0.30;;;23.50;76.80;;;;;;5048857;28;20377;-72
2022/05/22 11:27:19;;;;;;;0.40;0.30;;;23.60;77.90;;;;;;5048058;28;20423;-72
2022/05/22 11:30:06;;;;;;;0.40;0.30;;;23.10;82.40;;;;;;5034916;28;20437;-72
2022/05/22 11:32:49;;;;;;;0.40;0.20;;;23.30;76.00;;;;;;5052287;28;20458;-71
2022/05/22 11:35:47;;;;;;;0.40;0.30;;;23.30;75.40;;;;;;5049993;28;20381;-72
2022/05/22 11:38:31;;;;;;;0.40;0.25;;;23.90;75.70;;;;;;5024574;28;20763;-72
2022/05/22 11:41:24;;;;;;;0.40;0.30;;;24.60;72.60;;;;;;5032029;28;20487;-72
2022/05/22 11:44:01;;;;;;;0.40;0.20;;;24.60;70.00;;;;;;5031806;28;20395;-73
2022/05/22 11:46:59;;;;;;;0.40;0.30;;;25.40;69.40;;;;;;5032507;28;20874;-71
2022/05/22 11:49:42;;;;;;;0.40;0.30;;;26.20;68.00;;;;;;5032253;28;20387;-72
2022/05/22 11:55:36;;;;;;;0.40;0.20;;;26.20;71.90;;;;;;5031186;28;20879;-71
2022/05/22 11:58:19;;;;;;;0.40;0.20;;;25.20;70.20;;;;;;5031338;28;20395;-71
2022/05/22 12:01:04;;;;;;;0.40;0.20;;;25.20;67.20;;;;;;5031829;28;20525;-71
2022/05/22 12:04:07;;;;;;;0.40;0.20;;;25.70;68.40;;;;;;5032166;28;20863;-71
2022/05/22 12:07:08;;;;;;;0.40;0.20;;;25.40;67.90;;;;;;5031882;28;20383;-71
2022/05/22 12:09:56;;;;;;;0.40;0.20;;;25.70;67.70;;;;;;5033551;28;20400;-70
2022/05/22 12:12:37;;;;;;;0.40;0.30;;;24.80;68.10;;;;;;5041648;28;20411;-71
2022/05/22 12:15:18;;;;;;;0.40;0.20;;;25.40;72.50;;;;;;5040709;28;20826;-71
2022/05/22 12:17:49;;;;;;;0.40;0.28;;;26.70;67.10;;;;;;5041527;28;20877;-71
2022/05/22 12:20:44;;;;;;;0.40;0.20;;;26.80;69.20;;;;;;5041602;28;20392;-71
2022/05/22 12:23:16;;;;;;;0.40;0.20;;;26.20;65.70;;;;;;5041249;28;20385;-71
2022/05/22 12:25:46;;;;;;;0.40;0.30;;;25.80;67.70;;;;;;5041416;28;20395;-72
2022/05/22 12:28:45;;;;;;;0.40;0.20;;;25.40;70.40;;;;;;5039358;28;20418;-71
2022/05/22 12:31:20;;;;;;;0.40;0.30;;;25.00;72.40;;;;;;5040808;28;20397;-71
2022/05/22 12:33:46;;;;;;;0.40;0.30;;;25.10;67.90;;;;;;5041391;28;20381;-71
2022/05/22 12:36:14;;;;;;;0.40;0.20;;;25.10;72.60;;;;;;5041226;28;20374;-71
2022/05/22 12:38:51;;;;;;;0.40;0.20;;;25.80;71.90;;;;;;5039831;28;20387;-72
2022/05/22 12:41:35;;;;;;;0.40;0.20;;;25.50;69.50;;;;;;5041441;28;20396;-71
2022/05/22 12:44:04;;;;;;;0.40;0.20;;;25.00;69.00;;;;;;5039519;28;20732;-70
2022/05/22 12:46:31;;;;;;;0.40;0.20;;;26.10;65.20;;;;;;5022389;28;20391;-71
2022/05/22 12:49:19;;;;;;;0.40;0.20;;;25.90;62.40;;;;;;5040659;28;20757;-71
2022/05/22 12:52:18;;;;;;;0.40;0.20;;;25.80;63.00;;;;;;5038803;28;20379;-71
2022/05/22 12:54:57;;;;;;;0.40;0.20;;;26.10;61.50;;;;;;5032017;28;20927;-71
2022/05/22 12:57:23;;;;;;;0.40;0.20;;;25.90;62.60;;;;;;5038167;28;20395;-72
2022/05/22 12:59:53;;;;;;;0.40;0.30;;;25.80;62.30;;;;;;5040701;28;20395;-71
2022/05/22 13:02:33;;;;;;;0.40;0.30;;;25.30;61.40;;;;;;5034071;28;20406;-72
2022/05/22 13:05:01;;;;;;;0.40;0.30;;;25.60;63.40;;;;;;5024165;28;20407;-72
2022/05/22 13:07:33;;;;;;;0.40;0.30;;;26.50;63.90;;;;;;5041271;28;20417;-72
2022/05/22 13:10:11;;;;;;;0.40;0.30;;;26.80;65.60;;;;;;5035741;28;20428;-72
2022/05/22 13:12:38;;;;;;;0.40;0.30;;;27.40;64.90;;;;;;5033590;28;20410;-71
2022/05/22 13:15:03;;;;;;;0.40;0.20;;;27.80;59.50;;;;;;5039320;28;20383;-71
2022/05/22 13:18:11;;;;;;;0.40;0.20;;;27.70;58.60;;;;;;5030747;28;20395;-70
2022/05/22 13:20:37;;;;;;;0.80;0.50;;;27.90;55.70;;;;;;5030332;28;20883;-71
2022/05/22 13:23:23;;;;;;;0.40;0.30;;;28.30;56.50;;;;;;5029845;28;20421;-71